createdAt,value
2018-06-20T00:02:45.570Z,101937.30
2018-06-20T00:07:47.699Z,101935.27
2018-06-20T00:12:49.834Z,101934.22
2018-06-20T00:17:51.981Z,101928.03
2018-06-20T00:22:54.207Z,101925.03
2018-06-20T00:27:56.343Z,101927.00
2018-06-20T00:32:58.444Z,101921.84
2018-06-20T00:38:00.570Z,101913.80
2018-06-20T00:43:02.730Z,101915.65
2018-06-20T00:48:04.906Z,101911.73
2018-06-20T00:53:07.034Z,101920.56
2018-06-20T00:58:09.164Z,101908.53
2018-06-20T01:03:11.307Z,101904.96
2018-06-20T01:08:13.433Z,101896.02
2018-06-20T01:13:15.564Z,101898.61
2018-06-20T01:18:17.685Z,101896.57
2018-06-20T01:23:19.845Z,101893.81
2018-06-20T01:28:22.135Z,101889.74
2018-06-20T01:33:24.274Z,101885.22
2018-06-20T01:38:26.396Z,101885.36
2018-06-20T01:43:28.541Z,101879.50
2018-06-20T01:48:30.725Z,101879.64
2018-06-20T01:53:32.818Z,101873.72
2018-06-20T01:58:34.930Z,101869.91
2018-06-20T02:03:37.073Z,101872.95
2018-06-20T02:08:39.227Z,101861.77
2018-06-20T02:13:41.365Z,101857.86
2018-06-20T02:18:43.499Z,101857.13
2018-06-20T02:23:45.854Z,101862.84
2018-06-20T02:28:47.960Z,101863.72
2018-06-20T02:33:50.094Z,101857.81
2018-06-20T02:38:52.228Z,101860.83
2018-06-20T02:43:54.368Z,101854.73
2018-06-20T02:48:56.552Z,101863.91
2018-06-20T02:53:58.682Z,101852.04
2018-06-20T02:59:00.844Z,101843.09
2018-06-20T03:04:04.354Z,101831.31
2018-06-20T03:09:13.332Z,101832.30
2018-06-20T03:14:15.582Z,101833.56
2018-06-20T03:19:17.719Z,101829.59
2018-06-20T03:24:19.832Z,101834.77
2018-06-20T03:29:21.930Z,101832.55
2018-06-20T03:34:24.081Z,101837.47
2018-06-20T03:39:26.219Z,101843.03
2018-06-20T03:44:28.331Z,101844.02
2018-06-20T03:49:30.452Z,101834.81
2018-06-20T03:54:32.594Z,101833.50
2018-06-20T03:59:34.722Z,101826.80
2018-06-20T04:04:36.834Z,101825.19
2018-06-20T04:09:38.938Z,101822.29
2018-06-20T04:14:41.080Z,101833.33
2018-06-20T04:19:43.199Z,101831.14
2018-06-20T04:24:45.314Z,101829.22
2018-06-20T04:29:47.428Z,101813.51
2018-06-20T04:34:49.563Z,101812.63
2018-06-20T04:39:51.679Z,101805.86
2018-06-20T04:44:53.806Z,101807.20
2018-06-20T04:49:55.950Z,101807.20
2018-06-20T04:54:58.098Z,101803.66
2018-06-20T05:00:00.223Z,101803.86
2018-06-20T05:05:02.382Z,101799.72
2018-06-20T05:10:04.538Z,101802.95
2018-06-20T05:15:06.716Z,101791.33
2018-06-20T05:20:08.849Z,101787.34
2018-06-20T05:25:11.004Z,101778.39
2018-06-20T05:30:13.202Z,101775.27
2018-06-20T05:35:15.368Z,101776.66
2018-06-20T05:40:17.802Z,101762.36
2018-06-20T05:45:19.960Z,101768.41
2018-06-20T05:50:22.128Z,101759.43
2018-06-20T05:55:24.255Z,101756.08
2018-06-20T06:00:26.405Z,101747.27
2018-06-20T06:05:28.560Z,101744.95
2018-06-20T06:10:30.690Z,101737.51
2018-06-20T06:15:32.858Z,101744.52
2018-06-20T06:20:34.970Z,101749.16
2018-06-20T06:25:37.089Z,101750.80
2018-06-20T06:30:39.324Z,101740.70
2018-06-20T06:35:41.415Z,101739.95
2018-06-20T06:40:43.580Z,101733.38
2018-06-20T06:45:45.692Z,101736.32
2018-06-20T06:50:47.869Z,101737.22
2018-06-20T06:55:50.034Z,101729.91
2018-06-20T07:00:52.184Z,101722.45
2018-06-20T07:05:54.360Z,101729.23
2018-06-20T07:10:56.791Z,101721.95
2018-06-20T07:15:58.955Z,101724.05
2018-06-20T07:21:01.130Z,101711.32
2018-06-20T07:26:03.271Z,101711.37
2018-06-20T07:31:05.414Z,101698.42
2018-06-20T07:36:08.435Z,101695.30
2018-06-20T07:41:10.546Z,101694.81
2018-06-20T07:46:12.722Z,101693.78
2018-06-20T07:51:14.948Z,101687.28
2018-06-20T07:56:17.128Z,101684.91
2018-06-20T08:01:36.535Z,101669.75
2018-06-20T08:06:44.377Z,101670.53
2018-06-20T08:11:52.375Z,101668.18
2018-06-20T08:17:00.484Z,101659.25
2018-06-20T08:22:02.652Z,101662.10
2018-06-20T08:27:04.856Z,101650.56
2018-06-20T08:32:06.987Z,101653.34
2018-06-20T08:37:09.124Z,101647.34
2018-06-20T08:42:11.297Z,101655.62
2018-06-20T08:47:13.444Z,101640.81
2018-06-20T08:52:15.624Z,101656.14
2018-06-20T08:57:17.808Z,101643.97
2018-06-20T09:02:20.270Z,101641.86
2018-06-20T09:07:28.008Z,101637.71
2018-06-20T09:12:35.924Z,101633.51
2018-06-20T09:17:43.907Z,101625.83
2018-06-20T09:22:46.053Z,101620.78
2018-06-20T09:27:48.209Z,101614.05
2018-06-20T09:32:50.345Z,101604.62
2018-06-20T09:37:52.474Z,101606.87
2018-06-20T09:42:54.740Z,101609.92
2018-06-20T09:47:56.899Z,101609.89
2018-06-20T09:52:59.126Z,101600.86
2018-06-20T09:58:02.198Z,101596.55
2018-06-20T10:03:09.843Z,101585.02
2018-06-20T10:08:17.823Z,101591.55
2018-06-20T10:13:23.636Z,101568.78
2018-06-20T10:18:25.799Z,101569.21
2018-06-20T10:23:27.971Z,101570.94
2018-06-20T10:28:30.202Z,101558.42
2018-06-20T10:33:32.295Z,101548.08
2018-06-20T10:38:34.467Z,101541.21
2018-06-20T10:43:36.656Z,101539.84
2018-06-20T10:48:38.792Z,101526.00
2018-06-20T10:53:40.979Z,101524.02
2018-06-20T10:58:48.929Z,101523.27
2018-06-20T11:03:56.831Z,101521.14
2018-06-20T11:09:04.705Z,101522.00
2018-06-20T11:14:07.450Z,101506.99
2018-06-20T11:19:09.654Z,101503.55
2018-06-20T11:24:11.832Z,101499.60
2018-06-20T11:29:14.082Z,101489.69
2018-06-20T11:34:16.226Z,101485.44
2018-06-20T11:39:18.389Z,101475.56
2018-06-20T11:44:20.563Z,101471.98
2018-06-20T11:49:22.821Z,101464.41
2018-06-20T11:54:24.987Z,101467.91
2018-06-20T11:59:34.632Z,101471.30
2018-06-20T12:04:42.582Z,101477.30
2018-06-20T12:09:50.475Z,101453.38
2018-06-20T12:14:58.432Z,101438.25
2018-06-20T12:20:06.465Z,101438.17
2018-06-20T12:25:14.456Z,101441.11
2018-06-20T12:30:22.421Z,101438.20
2018-06-20T12:35:30.407Z,101417.27
2018-06-20T12:40:38.443Z,101421.80
2018-06-20T12:45:40.895Z,101410.18
2018-06-20T12:50:43.045Z,101404.98
2018-06-20T12:55:45.291Z,101394.64
2018-06-20T13:00:47.436Z,101395.23
2018-06-20T13:05:49.619Z,101385.34
2018-06-20T13:10:51.831Z,101386.80
2018-06-20T13:15:53.971Z,101379.72
2018-06-20T13:20:56.145Z,101373.56
2018-06-20T13:25:58.330Z,101362.53
2018-06-20T13:31:06.131Z,101363.09
2018-06-20T13:36:14.064Z,101351.63
2018-06-20T13:41:22.090Z,101354.73
2018-06-20T13:46:30.010Z,101350.24
2018-06-20T13:51:32.156Z,101341.59
2018-06-20T13:56:34.376Z,101331.56
2018-06-20T14:01:36.517Z,101325.44
2018-06-20T14:06:38.670Z,101326.08
2018-06-20T14:11:41.384Z,101336.77
2018-06-20T14:16:43.623Z,101333.86
2018-06-20T14:21:48.703Z,101330.80
2018-06-20T14:26:53.561Z,101322.87
2018-06-20T14:32:06.368Z,101318.67
2018-06-20T14:37:26.026Z,101317.28
2018-06-20T14:42:38.968Z,101317.38
2018-06-20T14:47:41.151Z,101302.78
2018-06-20T14:52:43.320Z,101295.21
2018-06-20T14:57:45.479Z,101290.05
2018-06-20T15:02:47.648Z,101293.75
2018-06-20T15:07:50.665Z,101288.88
2018-06-20T15:12:53.348Z,101293.53
2018-06-20T15:17:55.513Z,101287.60
2018-06-20T15:22:57.689Z,101278.59
2018-06-20T15:28:05.603Z,101275.45
2018-06-20T15:33:13.556Z,101275.52
2018-06-20T15:38:17.521Z,101266.97
2018-06-20T15:43:19.691Z,101263.73
2018-06-20T15:48:21.881Z,101265.08
2018-06-20T15:53:24.049Z,101265.20
2018-06-20T15:58:26.257Z,101255.77
2018-06-20T16:03:28.471Z,101247.59
2018-06-20T16:08:30.636Z,101240.84
2018-06-20T16:13:32.796Z,101234.18
2018-06-20T16:18:34.986Z,101239.97
2018-06-20T16:23:42.981Z,101238.55
2018-06-20T16:28:50.917Z,101228.70
2018-06-20T16:33:53.226Z,101227.60
2018-06-20T16:38:55.384Z,101234.88
2018-06-20T16:43:57.559Z,101230.37
2018-06-20T16:48:59.906Z,101234.77
2018-06-20T16:54:02.982Z,101230.98
2018-06-20T16:59:05.225Z,101224.53
2018-06-20T17:04:07.456Z,101233.45
2018-06-20T17:09:10.235Z,101224.06
2018-06-20T17:14:18.107Z,101231.69
2018-06-20T17:19:26.088Z,101230.40
2018-06-20T17:24:33.892Z,101226.22
2018-06-20T17:29:36.108Z,101229.22
2018-06-20T17:34:39.052Z,101216.09
2018-06-20T17:39:41.228Z,101227.39
2018-06-20T17:44:43.760Z,101228.07
2018-06-20T17:49:46.570Z,101229.00
2018-06-20T17:54:48.957Z,101228.75
2018-06-20T17:59:51.182Z,101220.27
2018-06-20T18:04:59.216Z,101223.80
2018-06-20T18:10:07.141Z,101219.91
2018-06-20T18:15:15.084Z,101215.67
2018-06-20T18:20:17.268Z,101210.54
2018-06-20T18:25:19.552Z,101203.64
2018-06-20T18:30:21.842Z,101198.64
2018-06-20T18:35:24.064Z,101200.79
2018-06-20T18:40:26.332Z,101199.08
2018-06-20T18:45:28.515Z,101187.55
2018-06-20T18:50:30.735Z,101185.38
2018-06-20T18:55:32.950Z,101198.69
2018-06-20T19:00:40.938Z,101195.68
2018-06-20T19:05:48.906Z,101202.97
2018-06-20T19:10:51.167Z,101184.15
2018-06-20T19:15:53.375Z,101191.86
2018-06-20T19:20:55.652Z,101195.27
2018-06-20T19:25:57.957Z,101198.27
2018-06-20T19:31:00.131Z,101199.11
2018-06-20T19:36:02.574Z,101188.00
2018-06-20T19:41:04.789Z,101194.41
2018-06-20T19:46:07.275Z,101187.95
2018-06-20T19:51:09.462Z,101186.66
2018-06-20T19:56:11.661Z,101187.05
2018-06-20T20:01:13.904Z,101190.42
2018-06-20T20:06:16.120Z,101188.73
2018-06-20T20:11:18.301Z,101191.70
2018-06-20T20:16:20.492Z,101187.41
2018-06-20T20:21:22.677Z,101177.18
2018-06-20T20:26:24.900Z,101173.74
2018-06-20T20:31:27.098Z,101170.78
2018-06-20T20:36:29.283Z,101169.09
2018-06-20T20:41:31.504Z,101156.25
2018-06-20T20:46:33.705Z,101157.94
2018-06-20T20:51:35.893Z,101159.19
2018-06-20T20:56:38.056Z,101150.16
2018-06-20T21:01:40.271Z,101142.84
2018-06-20T21:06:42.466Z,101141.48
2018-06-20T21:11:45.299Z,101142.70
2018-06-20T21:16:47.491Z,101134.92
2018-06-20T21:21:49.695Z,101131.49
2018-06-20T21:26:51.993Z,101125.14
2018-06-20T21:31:54.145Z,101126.84
2018-06-20T21:36:56.343Z,101125.09
2018-06-20T21:41:58.483Z,101121.27
2018-06-20T21:47:00.647Z,101122.58
2018-06-20T21:52:02.852Z,101121.30
2018-06-20T21:57:05.071Z,101123.47
2018-06-20T22:02:07.310Z,101113.66
2018-06-20T22:07:09.488Z,101106.33
2018-06-20T22:12:11.657Z,101098.47
2018-06-20T22:17:13.803Z,101096.53
2018-06-20T22:22:15.947Z,101092.69
2018-06-20T22:27:18.096Z,101080.70
2018-06-20T22:32:20.229Z,101067.75
2018-06-20T22:37:22.630Z,101068.58
2018-06-20T22:42:24.803Z,101055.77
2018-06-20T22:47:27.310Z,101049.41
2018-06-20T22:52:29.439Z,101050.23
2018-06-20T22:57:31.882Z,101050.24
2018-06-20T23:02:34.360Z,101045.58
2018-06-20T23:07:36.560Z,101048.92
2018-06-20T23:12:38.728Z,101048.78
2018-06-20T23:17:40.861Z,101047.18
2018-06-20T23:22:42.973Z,101040.33
2018-06-20T23:27:45.095Z,101039.09
2018-06-20T23:32:47.240Z,101034.38
2018-06-20T23:37:49.393Z,101029.23
2018-06-20T23:42:51.538Z,101032.61
2018-06-20T23:47:53.690Z,101017.17
2018-06-20T23:52:55.824Z,101009.80
2018-06-20T23:57:57.987Z,101001.36
